Time;durP1;ratioP1;P1;durP2;ratioP2;P2;SDS_P1;SDS_P2;PMS_P1;PMS_P2;Temp;Humidity;BMP_temperature;BMP_pressure;BME280_temperature;BME280_humidity;BME280_pressure;Samples;Min_cycle;Max_cycle;Signal;HPM_P1;HPM_P2
2022/01/03 00:01:44;;;;;;;10.18;1.67;;;8.20;99.90;;;;;;5052337;28;20059;-83
2022/01/03 00:04:11;;;;;;;16.80;1.42;;;8.20;99.90;;;;;;5051795;28;20191;-83
2022/01/03 00:06:38;;;;;;;10.48;1.48;;;8.30;99.90;;;;;;5051986;28;20048;-86
2022/01/03 00:09:05;;;;;;;13.07;1.85;;;8.80;99.90;;;;;;5051920;28;20195;-84
2022/01/03 00:11:31;;;;;;;19.80;2.15;;;8.60;99.90;;;;;;5051828;28;20057;-84
2022/01/03 00:13:57;;;;;;;12.77;1.55;;;8.40;99.90;;;;;;5051985;28;20048;-85
2022/01/03 00:16:24;;;;;;;9.90;1.50;;;8.40;99.90;;;;;;5051650;28;20428;-83
2022/01/03 00:18:53;;;;;;;13.50;1.55;;;8.50;99.90;;;;;;5051691;28;20057;-83
2022/01/03 00:21:38;;;;;;;13.98;2.00;;;8.50;99.90;;;;;;5052015;28;20047;-85
2022/01/03 00:24:10;;;;;;;12.93;1.52;;;9.10;99.90;;;;;;5052128;28;20059;-84
2022/01/03 00:26:37;;;;;;;6.45;1.48;;;9.20;99.90;;;;;;5051515;28;20086;-84
2022/01/03 00:29:15;;;;;;;12.00;1.45;;;9.30;99.90;;;;;;5051172;28;20053;-82
2022/01/03 00:31:42;;;;;;;15.55;2.10;;;8.60;99.90;;;;;;5067219;28;20545;-84
2022/01/03 00:34:10;;;;;;;19.02;2.47;;;8.60;99.90;;;;;;5071540;28;20095;-83
2022/01/03 00:36:38;;;;;;;15.40;1.83;;;8.60;99.90;;;;;;5053988;28;20453;-84
2022/01/03 00:39:07;;;;;;;15.30;1.85;;;8.70;99.90;;;;;;5071778;28;20044;-82
2022/01/03 00:41:37;;;;;;;11.75;2.33;;;8.70;99.90;;;;;;5071008;28;20124;-83
2022/01/03 00:44:04;;;;;;;17.17;2.03;;;9.20;99.90;;;;;;5056107;28;20076;-83
2022/01/03 00:46:32;;;;;;;14.15;2.00;;;8.70;99.90;;;;;;5051461;28;20137;-84
2022/01/03 00:49:00;;;;;;;20.27;2.42;;;9.40;99.90;;;;;;5051117;28;20040;-82
2022/01/03 00:51:26;;;;;;;22.08;3.13;;;8.70;99.90;;;;;;5051718;28;20098;-81
2022/01/03 00:53:55;;;;;;;14.02;2.15;;;8.70;99.90;;;;;;5017169;28;20525;-81
2022/01/03 00:56:29;;;;;;;27.48;2.60;;;8.70;99.90;;;;;;5051418;28;20049;-82
2022/01/03 00:59:11;;;;;;;28.25;3.70;;;8.60;99.90;;;;;;5051411;28;20041;-81
2022/01/03 01:01:46;;;;;;;23.75;2.55;;;8.80;99.90;;;;;;5051260;28;20439;-82
2022/01/03 01:04:13;;;;;;;22.50;2.58;;;8.70;99.90;;;;;;5051481;28;20413;-83
2022/01/03 01:06:39;;;;;;;17.20;2.42;;;8.70;99.90;;;;;;5016688;28;20566;-80
2022/01/03 01:09:08;;;;;;;27.70;3.05;;;9.10;99.90;;;;;;5016326;28;20047;-82
2022/01/03 01:11:34;;;;;;;22.88;2.33;;;9.20;99.90;;;;;;5033027;28;20056;-83
2022/01/03 01:14:02;;;;;;;21.15;3.40;;;8.70;99.90;;;;;;5050260;28;20080;-83
2022/01/03 01:16:28;;;;;;;14.30;2.35;;;9.40;99.90;;;;;;5062578;28;20040;-83
2022/01/03 01:18:55;;;;;;;30.33;3.67;;;8.70;99.90;;;;;;5071012;28;20083;-82
2022/01/03 01:21:23;;;;;;;15.48;2.30;;;8.70;99.90;;;;;;5052983;28;20057;-80
2022/01/03 01:23:50;;;;;;;16.88;2.25;;;8.70;99.90;;;;;;5070781;28;20059;-80
2022/01/03 01:29:05;;;;;;;15.27;2.45;;;8.70;99.90;;;;;;5050350;28;20122;-81
2022/01/03 01:31:34;;;;;;;20.05;2.47;;;8.70;99.90;;;;;;5050497;28;20506;-80
2022/01/03 01:34:03;;;;;;;23.58;3.15;;;8.80;99.90;;;;;;5050697;28;20630;-83
2022/01/03 01:36:30;;;;;;;27.38;2.85;;;9.40;99.90;;;;;;5050827;28;20044;-80
2022/01/03 01:39:02;;;;;;;18.38;2.72;;;8.80;99.90;;;;;;5050814;28;20489;-83
2022/01/03 01:41:29;;;;;;;21.83;2.90;;;8.80;99.90;;;;;;5050786;28;20052;-81
2022/01/03 01:44:00;;;;;;;25.00;3.45;;;8.90;99.90;;;;;;5049880;28;20852;-81
2022/01/03 01:46:26;;;;;;;26.35;3.00;;;8.80;99.90;;;;;;5016637;28;20400;-82
2022/01/03 01:48:53;;;;;;;21.60;2.67;;;8.90;99.90;;;;;;5016349;28;20091;-81
2022/01/03 01:51:23;;;;;;;25.63;3.28;;;8.90;99.90;;;;;;5050517;28;20080;-82
2022/01/03 01:53:51;;;;;;;30.50;3.45;;;8.90;99.90;;;;;;5050391;28;20063;-82
2022/01/03 01:56:17;;;;;;;28.98;3.50;;;9.70;99.90;;;;;;5050118;28;20102;-82
2022/01/03 01:59:29;;;;;;;22.65;3.03;;;9.00;99.90;;;;;;5050536;28;20048;-82
2022/01/03 02:02:02;;;;;;;16.02;2.72;;;9.00;99.90;;;;;;4949694;29;20212;-81
2022/01/03 02:04:32;;;;;;;23.67;3.72;;;9.20;99.90;;;;;;4933951;29;20047;-82
2022/01/03 02:07:24;;;;;;;16.83;2.28;;;9.40;99.90;;;;;;4933664;29;20186;-81
2022/01/03 02:10:00;;;;;;;24.45;3.22;;;9.00;99.90;;;;;;4949530;29;20507;-83
2022/01/03 02:12:27;;;;;;;20.65;3.08;;;9.40;99.90;;;;;;4949253;28;20055;-82
2022/01/03 02:14:57;;;;;;;17.70;2.50;;;9.00;99.90;;;;;;4949552;29;20047;-82
2022/01/03 02:17:23;;;;;;;27.58;3.95;;;9.10;99.90;;;;;;4933937;29;20676;-81
2022/01/03 02:20:16;;;;;;;19.33;3.20;;;9.10;99.90;;;;;;4949643;29;20062;-81
2022/01/03 02:22:44;;;;;;;15.32;3.15;;;9.30;99.90;;;;;;4949338;29;20471;-83
2022/01/03 02:25:12;;;;;;;12.80;2.38;;;9.20;99.90;;;;;;4949508;29;20086;-84
2022/01/03 02:27:38;;;;;;;23.80;3.78;;;9.30;99.90;;;;;;4951027;28;20075;-82
2022/01/03 02:30:07;;;;;;;20.17;2.83;;;9.10;99.90;;;;;;4937381;29;20055;-83
2022/01/03 02:32:32;;;;;;;19.67;2.75;;;9.00;99.90;;;;;;4952934;29;20061;-81
2022/01/03 02:34:58;;;;;;;19.67;3.30;;;9.70;99.90;;;;;;4953416;29;20047;-82
2022/01/03 02:37:24;;;;;;;22.05;3.53;;;9.50;99.90;;;;;;4962603;28;20149;-82
2022/01/03 02:39:51;;;;;;;22.95;4.32;;;9.20;99.90;;;;;;5053790;28;20049;-81
2022/01/03 02:42:23;;;;;;;27.17;4.00;;;8.90;99.90;;;;;;5053740;28;20106;-84
2022/01/03 02:45:20;;;;;;;29.65;3.33;;;9.40;99.90;;;;;;5034067;28;20108;-82
2022/01/03 02:47:52;;;;;;;21.60;3.03;;;9.20;99.90;;;;;;5015678;28;20099;-83
2022/01/03 02:50:19;;;;;;;27.05;3.28;;;8.80;99.90;;;;;;5034028;28;20048;-83
2022/01/03 02:52:44;;;;;;;20.83;3.50;;;8.90;99.90;;;;;;5033471;28;20100;-84
2022/01/03 02:55:11;;;;;;;29.98;3.95;;;9.40;99.90;;;;;;5033942;28;20049;-85
2022/01/03 02:57:45;;;;;;;25.75;3.88;;;8.80;99.90;;;;;;5033974;28;20053;-82
2022/01/03 03:00:17;;;;;;;23.67;3.63;;;9.10;99.90;;;;;;5031657;28;20104;-86
2022/01/03 03:02:43;;;;;;;27.13;3.58;;;8.90;99.90;;;;;;5033100;28;20056;-85
2022/01/03 03:05:10;;;;;;;24.20;3.33;;;8.80;99.90;;;;;;5048354;28;20108;-82
2022/01/03 03:07:40;;;;;;;23.52;2.63;;;8.80;99.90;;;;;;5052893;28;20399;-84
2022/01/03 03:10:09;;;;;;;16.77;2.35;;;8.80;99.90;;;;;;5045790;28;20496;-84
2022/01/03 03:12:35;;;;;;;24.50;3.60;;;8.80;99.90;;;;;;5053370;28;20049;-86
2022/01/03 03:15:04;;;;;;;20.50;2.97;;;8.70;99.90;;;;;;5053785;28;20080;-85
2022/01/03 03:17:29;;;;;;;22.35;3.78;;;9.20;99.90;;;;;;5053490;28;20091;-85
2022/01/03 03:20:08;;;;;;;27.27;2.90;;;8.70;99.90;;;;;;5051453;28;20076;-85
2022/01/03 03:22:40;;;;;;;24.52;3.67;;;8.70;99.90;;;;;;5051977;28;20047;-86
2022/01/03 03:25:28;;;;;;;26.98;3.25;;;8.70;99.90;;;;;;5053081;28;20526;-86
2022/01/03 03:28:00;;;;;;;27.52;3.72;;;8.70;99.90;;;;;;5053064;28;20132;-85
2022/01/03 03:30:29;;;;;;;37.72;3.45;;;8.90;99.90;;;;;;5052889;28;20045;-84
2022/01/03 03:33:04;;;;;;;28.90;3.42;;;8.60;99.90;;;;;;5053095;28;20779;-82
2022/01/03 03:35:30;;;;;;;24.42;2.95;;;8.60;99.90;;;;;;5052260;28;20084;-84
2022/01/03 03:37:56;;;;;;;24.90;3.70;;;8.60;99.90;;;;;;5052867;28;20045;-84
2022/01/03 03:40:22;;;;;;;25.58;3.58;;;8.60;99.90;;;;;;5052006;28;20096;-86
2022/01/03 03:42:48;;;;;;;27.08;3.90;;;8.60;99.90;;;;;;5052347;28;20625;-85
2022/01/03 03:45:14;;;;;;;27.38;3.45;;;8.60;99.90;;;;;;5017962;28;20056;-82
2022/01/03 03:47:41;;;;;;;22.58;4.20;;;8.60;99.90;;;;;;5052808;28;20060;-84
2022/01/03 03:50:08;;;;;;;26.50;3.35;;;8.50;99.90;;;;;;5050767;28;20055;-85
2022/01/03 03:52:34;;;;;;;26.23;2.95;;;8.60;99.90;;;;;;5052372;28;20076;-86
2022/01/03 03:55:00;;;;;;;35.63;4.28;;;8.60;99.90;;;;;;5051146;28;20590;-85
2022/01/03 03:57:25;;;;;;;30.27;3.85;;;8.50;99.90;;;;;;5052141;28;20049;-83
2022/01/03 03:59:51;;;;;;;29.42;3.85;;;8.50;99.90;;;;;;5052237;28;20041;-82
2022/01/03 04:02:19;;;;;;;24.90;3.15;;;8.50;99.90;;;;;;5050787;28;20447;-82
2022/01/03 04:04:45;;;;;;;33.90;3.92;;;8.80;99.90;;;;;;5050625;28;20049;-85
2022/01/03 04:07:10;;;;;;;25.55;4.25;;;8.60;99.90;;;;;;5051840;28;20503;-82
2022/01/03 04:09:36;;;;;;;41.17;4.50;;;8.60;99.90;;;;;;5050652;28;20064;-84
2022/01/03 04:12:08;;;;;;;20.98;3.20;;;9.30;99.90;;;;;;5052117;28;20080;-84
2022/01/03 04:14:34;;;;;;;21.52;3.78;;;8.60;99.90;;;;;;5051916;28;20048;-84
2022/01/03 04:16:59;;;;;;;31.80;3.63;;;9.30;99.90;;;;;;5052019;28;20510;-85
2022/01/03 04:19:25;;;;;;;27.13;3.40;;;9.40;99.90;;;;;;5052243;28;20044;-85
2022/01/03 04:21:54;;;;;;;24.38;3.38;;;8.60;99.90;;;;;;5050524;28;20044;-86
2022/01/03 04:24:19;;;;;;;28.25;4.15;;;8.70;99.90;;;;;;5052205;28;20041;-83
2022/01/03 04:26:45;;;;;;;28.95;3.92;;;9.40;99.90;;;;;;5051965;28;20859;-82
2022/01/03 04:29:12;;;;;;;25.67;3.53;;;9.30;99.90;;;;;;5050478;28;20106;-82
2022/01/03 04:31:38;;;;;;;26.95;2.90;;;9.30;99.90;;;;;;5050044;28;20059;-83
2022/01/03 04:34:04;;;;;;;24.25;3.70;;;8.90;99.90;;;;;;5050505;28;20048;-86
2022/01/03 04:36:30;;;;;;;16.88;3.85;;;8.40;99.90;;;;;;5051865;28;20041;-85
2022/01/03 04:38:58;;;;;;;25.75;3.33;;;9.10;99.90;;;;;;5052124;28;20041;-81
2022/01/03 04:41:24;;;;;;;28.67;4.43;;;8.60;99.90;;;;;;5050250;28;20044;-82
2022/01/03 04:43:49;;;;;;;27.95;3.70;;;8.60;99.90;;;;;;5051367;28;20097;-84
2022/01/03 04:46:15;;;;;;;33.80;4.78;;;8.90;99.90;;;;;;5049900;28;20074;-80
2022/01/03 04:48:42;;;;;;;31.33;3.72;;;9.10;99.90;;;;;;5051862;28;20044;-81
2022/01/03 04:51:09;;;;;;;12.20;2.53;;;9.10;99.90;;;;;;5050602;28;20041;-84
2022/01/03 04:53:39;;;;;;;31.13;5.22;;;8.70;99.90;;;;;;5051110;28;20404;-82
2022/01/03 04:56:06;;;;;;;31.33;4.88;;;8.60;99.90;;;;;;5050273;28;20095;-83
2022/01/03 04:58:32;;;;;;;23.65;3.35;;;8.70;99.90;;;;;;5051693;28;20106;-82
2022/01/03 05:00:57;;;;;;;29.30;3.83;;;8.70;99.90;;;;;;5050539;28;20045;-83
2022/01/03 05:03:23;;;;;;;25.58;4.18;;;8.70;99.90;;;;;;5051520;28;20041;-87
2022/01/03 05:05:49;;;;;;;30.15;4.05;;;9.00;99.90;;;;;;5052068;28;20048;-84
2022/01/03 05:08:14;;;;;;;26.23;4.25;;;8.90;99.90;;;;;;5051710;28;20040;-82
2022/01/03 05:10:40;;;;;;;31.02;4.57;;;8.60;99.90;;;;;;5034641;28;20088;-83
2022/01/03 05:13:06;;;;;;;32.78;4.45;;;8.70;99.90;;;;;;5052752;28;20084;-85
2022/01/03 05:15:31;;;;;;;25.80;4.00;;;8.70;99.90;;;;;;5050573;28;20049;-82
2022/01/03 05:17:57;;;;;;;33.88;4.68;;;9.10;99.90;;;;;;5051983;28;20500;-81
2022/01/03 05:20:23;;;;;;;24.95;4.32;;;8.60;99.90;;;;;;5050308;28;20051;-83
2022/01/03 05:22:48;;;;;;;26.50;4.03;;;9.20;99.90;;;;;;5051505;28;20128;-83
2022/01/03 05:25:14;;;;;;;26.80;4.60;;;8.80;99.90;;;;;;5049347;28;20048;-86
2022/01/03 05:27:42;;;;;;;42.45;4.25;;;8.70;99.90;;;;;;5049690;28;20060;-84
2022/01/03 05:30:09;;;;;;;28.63;3.75;;;9.30;99.90;;;;;;5033215;28;20049;-82
2022/01/03 05:32:41;;;;;;;24.92;3.90;;;8.60;99.90;;;;;;5049556;28;20052;-84
2022/01/03 05:35:07;;;;;;;36.42;4.57;;;9.10;99.90;;;;;;5050536;28;20055;-83
2022/01/03 05:37:33;;;;;;;31.33;4.05;;;8.60;99.90;;;;;;5050851;28;20108;-84
2022/01/03 05:39:59;;;;;;;27.15;3.40;;;8.60;99.90;;;;;;5050169;28;20123;-81
2022/01/03 05:42:24;;;;;;;27.38;5.07;;;9.30;99.90;;;;;;5050122;28;20072;-83
2022/01/03 05:44:51;;;;;;;31.60;4.00;;;8.60;99.90;;;;;;5049058;28;20045;-83
2022/01/03 05:47:17;;;;;;;29.15;4.82;;;8.60;99.90;;;;;;5049030;28;20053;-86
2022/01/03 05:49:43;;;;;;;28.45;4.63;;;8.60;99.90;;;;;;5050548;28;20500;-83
2022/01/03 05:52:08;;;;;;;24.85;3.95;;;8.60;99.90;;;;;;5050555;28;20067;-82
2022/01/03 05:54:34;;;;;;;32.50;6.13;;;8.60;99.90;;;;;;5050234;28;20495;-83
2022/01/03 05:57:00;;;;;;;38.63;4.53;;;9.30;99.90;;;;;;5050209;28;20117;-81
2022/01/03 05:59:25;;;;;;;34.60;5.60;;;9.00;99.90;;;;;;5050315;28;20537;-82
2022/01/03 06:01:53;;;;;;;26.88;4.80;;;8.60;99.90;;;;;;5048396;28;20098;-84
2022/01/03 06:04:24;;;;;;;35.10;4.72;;;8.60;99.90;;;;;;5050450;28;20124;-85
2022/01/03 06:06:56;;;;;;;36.67;4.57;;;8.60;99.90;;;;;;5050165;28;20556;-83
2022/01/03 06:09:23;;;;;;;36.80;4.88;;;9.10;99.90;;;;;;5057696;28;20087;-84
2022/01/03 06:11:51;;;;;;;32.83;4.32;;;9.20;99.90;;;;;;5051653;28;20385;-85
2022/01/03 06:14:21;;;;;;;31.35;4.53;;;8.50;99.90;;;;;;5070314;28;20044;-82
2022/01/03 06:16:48;;;;;;;33.08;4.30;;;8.90;99.90;;;;;;5070053;28;20507;-83
2022/01/03 06:19:14;;;;;;;31.30;3.72;;;9.10;99.90;;;;;;5070115;28;20049;-84
2022/01/03 06:21:41;;;;;;;29.58;4.60;;;8.40;99.90;;;;;;5070260;28;20116;-84
2022/01/03 06:24:11;;;;;;;34.22;5.10;;;8.40;99.90;;;;;;5070176;28;20407;-85
2022/01/03 06:26:41;;;;;;;35.97;4.57;;;8.40;99.90;;;;;;5069755;28;20177;-85
2022/01/03 06:29:07;;;;;;;26.85;4.30;;;8.80;99.90;;;;;;5069992;28;20040;-83
2022/01/03 06:31:33;;;;;;;32.88;4.32;;;9.00;99.90;;;;;;5070410;28;20110;-87
2022/01/03 06:34:07;;;;;;;32.08;4.45;;;8.60;99.90;;;;;;5052029;28;20513;-86
2022/01/03 06:36:33;;;;;;;21.65;3.20;;;8.70;99.90;;;;;;5070352;28;20052;-86
2022/01/03 06:38:59;;;;;;;35.13;4.80;;;8.30;99.90;;;;;;5070029;28;20105;-85
2022/01/03 06:41:28;;;;;;;40.08;5.50;;;8.30;99.90;;;;;;5069653;28;20041;-87
2022/01/03 06:43:54;;;;;;;44.22;6.38;;;9.20;99.90;;;;;;5069863;28;20055;-87
2022/01/03 06:46:20;;;;;;;43.67;5.97;;;8.80;99.90;;;;;;5070371;28;20037;-86
2022/01/03 06:48:46;;;;;;;29.85;5.05;;;8.80;99.90;;;;;;5070372;28;20036;-80
2022/01/03 06:51:13;;;;;;;29.13;4.90;;;8.30;99.90;;;;;;5070223;28;20503;-85
2022/01/03 06:53:39;;;;;;;35.58;5.10;;;8.30;99.90;;;;;;5070017;28;20059;-82
2022/01/03 06:56:05;;;;;;;36.40;4.70;;;8.60;99.90;;;;;;5052154;28;20045;-85
2022/01/03 06:58:31;;;;;;;31.80;4.50;;;8.30;99.90;;;;;;5051439;28;20413;-83
2022/01/03 07:00:57;;;;;;;30.88;3.72;;;8.80;99.90;;;;;;5069945;28;20051;-85
2022/01/03 07:03:23;;;;;;;48.47;5.50;;;8.30;99.90;;;;;;5069983;28;20044;-84
2022/01/03 07:05:49;;;;;;;35.83;4.88;;;8.30;99.90;;;;;;5051693;28;20075;-82
2022/01/03 07:08:14;;;;;;;47.78;4.97;;;8.30;99.90;;;;;;5069725;28;20109;-84
2022/01/03 07:10:40;;;;;;;34.22;4.65;;;8.30;99.90;;;;;;5070242;28;20052;-85
2022/01/03 07:13:05;;;;;;;31.23;4.38;;;8.30;99.90;;;;;;5071116;28;20048;-85
2022/01/03 07:18:59;;;;;;;34.95;5.00;;;8.30;99.90;;;;;;5093688;28;20391;-83
2022/01/03 07:21:04;;;;;;;28.65;4.20;;;8.30;99.90;;;;;;5075452;28;20048;-87
2022/01/03 07:23:30;;;;;;;29.63;4.50;;;8.30;99.90;;;;;;5065168;28;20052;-85
2022/01/03 07:25:56;;;;;;;43.75;5.35;;;8.30;99.90;;;;;;5094134;28;20036;-83
2022/01/03 07:28:21;;;;;;;18.52;3.80;;;8.70;99.90;;;;;;5077652;28;20472;-87
2022/01/03 07:30:47;;;;;;;40.92;5.20;;;8.30;99.90;;;;;;5073404;28;20044;-83
2022/01/03 07:33:13;;;;;;;44.38;5.15;;;8.30;99.90;;;;;;5073052;28;20048;-83
2022/01/03 07:35:38;;;;;;;28.95;4.68;;;8.30;99.90;;;;;;5072905;28;20407;-82
2022/01/03 07:38:04;;;;;;;43.70;5.40;;;9.00;99.90;;;;;;5073548;28;20044;-84
2022/01/03 07:40:31;;;;;;;27.02;4.80;;;9.00;99.90;;;;;;5072885;28;20151;-85
2022/01/03 07:42:58;;;;;;;38.03;4.93;;;8.30;99.90;;;;;;5054904;28;20570;-85
2022/01/03 07:45:23;;;;;;;31.92;4.72;;;8.30;99.90;;;;;;5090581;28;20097;-83
2022/01/03 07:47:49;;;;;;;33.40;4.65;;;8.30;99.90;;;;;;5089136;28;20607;-83
2022/01/03 07:50:15;;;;;;;37.05;4.53;;;8.30;99.90;;;;;;5073417;28;20079;-82
2022/01/03 07:52:48;;;;;;;38.03;4.72;;;8.40;99.90;;;;;;5073519;28;20080;-85
2022/01/03 07:55:16;;;;;;;25.00;4.65;;;8.40;99.90;;;;;;5073170;28;20051;-84
2022/01/03 07:57:42;;;;;;;30.25;4.72;;;9.20;99.90;;;;;;5054681;28;20048;-81
2022/01/03 08:00:15;;;;;;;45.35;4.78;;;8.50;99.90;;;;;;5071835;28;20510;-84
2022/01/03 08:02:44;;;;;;;30.83;4.43;;;8.50;99.90;;;;;;5072387;28;20056;-83
2022/01/03 08:05:13;;;;;;;34.38;5.07;;;8.50;99.90;;;;;;5072278;28;20062;-82
2022/01/03 08:07:39;;;;;;;36.38;5.00;;;8.60;99.90;;;;;;5072058;28;20051;-83
2022/01/03 08:10:06;;;;;;;31.23;3.78;;;9.00;99.90;;;;;;5072098;28;20056;-83
2022/01/03 08:12:33;;;;;;;37.10;4.78;;;8.70;99.90;;;;;;5071760;28;20593;-83
2022/01/03 08:14:59;;;;;;;23.30;3.40;;;8.70;99.90;;;;;;5054476;28;20084;-83
2022/01/03 08:17:27;;;;;;;36.72;5.05;;;9.20;99.90;;;;;;5071504;28;20102;-83
2022/01/03 08:19:53;;;;;;;28.52;4.80;;;8.80;99.90;;;;;;5072108;28;20127;-82
2022/01/03 08:22:19;;;;;;;34.25;5.25;;;8.80;99.90;;;;;;5037211;28;20451;-84
2022/01/03 08:24:45;;;;;;;30.10;4.00;;;8.80;99.90;;;;;;5071417;28;20101;-84
2022/01/03 08:27:14;;;;;;;25.33;4.07;;;8.80;99.90;;;;;;5071924;28;20049;-84
2022/01/03 08:29:40;;;;;;;36.78;5.28;;;9.40;99.90;;;;;;5071829;28;20036;-82
2022/01/03 08:32:06;;;;;;;33.15;4.50;;;9.40;99.90;;;;;;5060508;28;20048;-84
2022/01/03 08:34:32;;;;;;;41.15;4.53;;;8.80;99.90;;;;;;5086606;28;20048;-82
2022/01/03 08:37:00;;;;;;;38.63;4.20;;;8.80;99.90;;;;;;5076953;28;20410;-84
2022/01/03 08:39:34;;;;;;;28.13;3.55;;;8.80;99.90;;;;;;5033321;28;20061;-85
2022/01/03 08:42:00;;;;;;;35.58;4.97;;;8.80;99.90;;;;;;5049699;28;20576;-83
2022/01/03 08:44:26;;;;;;;31.77;4.72;;;9.20;99.90;;;;;;5049850;28;20597;-80
2022/01/03 08:46:51;;;;;;;32.20;4.40;;;8.90;99.90;;;;;;5049800;28;20045;-84
2022/01/03 08:49:18;;;;;;;37.92;3.88;;;9.00;99.90;;;;;;5033024;28;20091;-82
2022/01/03 08:51:46;;;;;;;38.38;3.70;;;9.50;99.90;;;;;;5049944;28;20114;-82
2022/01/03 08:54:12;;;;;;;30.92;3.70;;;8.90;99.90;;;;;;5015497;28;20060;-86
2022/01/03 08:56:41;;;;;;;30.27;4.63;;;9.00;99.90;;;;;;5049582;28;20051;-84
2022/01/03 08:59:07;;;;;;;20.38;3.25;;;9.00;99.90;;;;;;5016426;28;20386;-86
2022/01/03 09:01:33;;;;;;;30.67;3.95;;;9.00;99.90;;;;;;5050017;28;20126;-82
2022/01/03 09:03:58;;;;;;;31.17;5.25;;;9.20;99.90;;;;;;5050128;28;20052;-82
2022/01/03 09:06:24;;;;;;;29.17;4.68;;;9.50;99.90;;;;;;5049637;28;20818;-85
2022/01/03 09:08:50;;;;;;;30.30;4.10;;;9.90;99.90;;;;;;5050647;28;20521;-81
2022/01/03 09:11:16;;;;;;;30.48;5.15;;;9.10;99.90;;;;;;5089990;28;20051;-80
2022/01/03 09:13:42;;;;;;;34.08;6.10;;;9.10;99.90;;;;;;5073153;28;20104;-81
2022/01/03 09:16:07;;;;;;;27.23;3.47;;;9.00;99.90;;;;;;5071014;28;20427;-82
2022/01/03 09:18:35;;;;;;;30.95;3.97;;;9.00;99.90;;;;;;5053839;28;20041;-82
2022/01/03 09:21:01;;;;;;;25.65;3.83;;;9.10;99.90;;;;;;5072134;28;20049;-81
2022/01/03 09:23:31;;;;;;;37.55;4.32;;;9.60;99.90;;;;;;5070584;28;20049;-81
2022/01/03 09:28:53;;;;;;;28.63;4.22;;;9.10;99.90;;;;;;5070216;28;20051;-82
2022/01/03 09:31:21;;;;;;;26.17;3.95;;;9.30;99.90;;;;;;5071613;28;20047;-81
2022/01/03 09:33:47;;;;;;;30.42;4.25;;;9.20;99.90;;;;;;5071352;28;20506;-81
2022/01/03 09:36:12;;;;;;;29.27;3.88;;;9.90;99.90;;;;;;5069434;28;20044;-82
2022/01/03 09:38:38;;;;;;;24.15;4.13;;;9.90;99.90;;;;;;5071124;28;20040;-83
2022/01/03 09:41:06;;;;;;;35.00;4.15;;;9.20;99.90;;;;;;5071259;28;20052;-85
2022/01/03 09:43:52;;;;;;;24.67;3.95;;;9.20;99.90;;;;;;5058016;28;20110;-81
2022/01/03 09:46:26;;;;;;;29.80;4.95;;;9.20;99.90;;;;;;5071029;28;20037;-80
2022/01/03 09:48:55;;;;;;;38.33;5.35;;;9.20;99.90;;;;;;5036324;28;20052;-81
2022/01/03 09:51:27;;;;;;;27.73;3.72;;;9.20;99.90;;;;;;5070775;28;20499;-78
2022/01/03 09:53:54;;;;;;;26.50;4.22;;;9.40;99.90;;;;;;5071033;28;20059;-81
2022/01/03 09:56:24;;;;;;;29.30;4.45;;;9.80;99.90;;;;;;5048975;23;20053;-82
2022/01/03 09:58:50;;;;;;;26.55;4.63;;;9.30;99.90;;;;;;5014445;28;20068;-80
2022/01/03 10:01:16;;;;;;;34.03;5.18;;;9.50;99.90;;;;;;5030955;28;20046;-81
2022/01/03 10:03:47;;;;;;;31.20;4.07;;;10.00;99.90;;;;;;5031012;28;20042;-80
2022/01/03 10:06:16;;;;;;;32.00;5.28;;;9.70;99.90;;;;;;5013161;28;20048;-81
2022/01/03 10:08:43;;;;;;;34.13;5.28;;;9.90;99.90;;;;;;5031029;28;20149;-79
2022/01/03 10:11:09;;;;;;;37.58;5.47;;;9.50;99.90;;;;;;5013283;28;20152;-80
2022/01/03 10:13:34;;;;;;;30.20;5.07;;;9.40;99.90;;;;;;5030848;28;20444;-81
2022/01/03 10:16:00;;;;;;;27.25;3.40;;;9.40;99.90;;;;;;5030787;28;20045;-80
2022/01/03 10:18:29;;;;;;;33.58;4.90;;;9.70;99.90;;;;;;4997191;28;20049;-82
2022/01/03 10:21:02;;;;;;;33.13;4.22;;;10.00;99.90;;;;;;4996812;28;20065;-80
2022/01/03 10:23:28;;;;;;;27.75;3.80;;;10.00;99.90;;;;;;5012983;28;20108;-82
2022/01/03 10:26:16;;;;;;;38.38;4.97;;;10.10;99.90;;;;;;5030769;28;20081;-82
2022/01/03 10:28:42;;;;;;;34.38;6.03;;;9.60;99.90;;;;;;5035331;28;20094;-80
2022/01/03 10:31:20;;;;;;;27.48;4.13;;;9.90;99.90;;;;;;5032687;28;20103;-80
2022/01/03 10:33:47;;;;;;;28.50;4.50;;;9.80;99.90;;;;;;5050440;28;20106;-80
2022/01/03 10:36:33;;;;;;;29.38;5.35;;;9.80;99.90;;;;;;5050647;28;20103;-80
2022/01/03 10:39:20;;;;;;;30.10;4.57;;;9.80;99.90;;;;;;5048618;28;20500;-82
2022/01/03 10:41:49;;;;;;;36.45;5.32;;;10.40;99.90;;;;;;5032673;28;20044;-81
2022/01/03 10:44:32;;;;;;;22.00;4.10;;;9.90;99.90;;;;;;5050718;28;20052;-80
2022/01/03 10:46:58;;;;;;;32.72;4.38;;;9.90;99.90;;;;;;5050672;28;20485;-82
2022/01/03 10:49:28;;;;;;;31.88;5.05;;;10.40;99.90;;;;;;5019149;28;20049;-81
2022/01/03 10:52:15;;;;;;;28.65;4.60;;;10.00;99.90;;;;;;5036435;28;20702;-82
2022/01/03 10:55:03;;;;;;;23.58;4.18;;;10.00;99.90;;;;;;5053971;28;20088;-80
2022/01/03 10:57:44;;;;;;;32.67;4.63;;;9.90;99.90;;;;;;5035929;28;20068;-81
2022/01/03 11:00:22;;;;;;;28.77;4.88;;;10.00;99.90;;;;;;5052396;28;20049;-80
2022/01/03 11:03:17;;;;;;;27.95;4.38;;;10.00;99.90;;;;;;5054460;28;20045;-81
2022/01/03 11:05:47;;;;;;;21.30;3.30;;;10.00;99.90;;;;;;5053901;28;20049;-81
2022/01/03 11:10:58;;;;;;;28.75;3.50;;;10.40;99.90;;;;;;5036072;28;20488;-80
2022/01/03 11:13:23;;;;;;;28.33;3.88;;;10.50;99.90;;;;;;5054022;28;20063;-81
2022/01/03 11:15:55;;;;;;;28.67;3.72;;;10.70;99.90;;;;;;5023068;28;20412;-81
2022/01/03 11:18:38;;;;;;;30.55;4.57;;;10.20;99.90;;;;;;5033708;28;20092;-81
2022/01/03 11:21:16;;;;;;;21.08;3.53;;;10.00;99.90;;;;;;5033713;28;20042;-81
2022/01/03 11:23:43;;;;;;;32.13;5.10;;;10.20;99.90;;;;;;5030287;23;20054;-78
2022/01/03 11:26:17;;;;;;;34.28;5.55;;;10.40;99.90;;;;;;4999614;28;20129;-84
2022/01/03 11:28:43;;;;;;;33.22;4.93;;;10.30;99.90;;;;;;5015669;28;20049;-81
2022/01/03 11:31:11;;;;;;;26.27;4.70;;;10.60;99.90;;;;;;5033165;28;20048;-82
2022/01/03 11:33:38;;;;;;;26.63;3.53;;;10.50;99.90;;;;;;5015617;28;20045;-82
2022/01/03 11:36:05;;;;;;;26.80;4.45;;;10.50;99.90;;;;;;5015884;28;20045;-80
2022/01/03 11:38:34;;;;;;;28.52;4.00;;;10.50;99.90;;;;;;5033919;28;20095;-80
2022/01/03 11:41:05;;;;;;;26.80;4.32;;;10.40;99.90;;;;;;5033314;28;20049;-81
2022/01/03 11:43:33;;;;;;;20.42;3.83;;;11.00;99.90;;;;;;5033643;28;20112;-80
2022/01/03 11:45:59;;;;;;;27.02;4.40;;;10.90;99.90;;;;;;5033371;28;20074;-80
2022/01/03 11:48:26;;;;;;;21.13;3.85;;;10.40;99.90;;;;;;5015408;28;20045;-79
2022/01/03 11:51:02;;;;;;;28.02;4.43;;;10.40;99.90;;;;;;5015679;28;20693;-78
2022/01/03 11:53:33;;;;;;;28.50;3.80;;;10.50;99.90;;;;;;5012291;28;20053;-80
2022/01/03 11:56:15;;;;;;;32.55;4.00;;;10.90;99.90;;;;;;5013303;28;20400;-80
2022/01/03 11:58:52;;;;;;;23.17;3.90;;;10.70;99.90;;;;;;5013544;28;20416;-80
2022/01/03 12:04:14;;;;;;;29.77;3.50;;;10.70;99.90;;;;;;5013322;28;20057;-80
2022/01/03 12:06:44;;;;;;;40.03;4.85;;;10.30;99.90;;;;;;5013433;28;20042;-79
2022/01/03 12:09:12;;;;;;;26.67;4.93;;;10.20;99.90;;;;;;5013198;28;20080;-81
2022/01/03 12:11:56;;;;;;;30.67;4.10;;;10.50;99.90;;;;;;5012705;28;20729;-82
2022/01/03 12:14:39;;;;;;;25.77;4.40;;;10.20;99.90;;;;;;5012867;28;20497;-82
2022/01/03 12:17:07;;;;;;;23.85;3.83;;;10.50;99.90;;;;;;5013238;28;20053;-82
2022/01/03 12:19:36;;;;;;;28.67;4.10;;;10.50;99.90;;;;;;5013103;28;20056;-81
2022/01/03 12:22:13;;;;;;;24.98;3.85;;;10.20;99.90;;;;;;5020742;28;20489;-83
2022/01/03 12:24:46;;;;;;;23.55;4.18;;;10.30;99.90;;;;;;5032949;28;20053;-84
2022/01/03 12:27:14;;;;;;;28.75;3.45;;;10.30;99.90;;;;;;5032546;28;20121;-82
2022/01/03 12:30:07;;;;;;;30.60;3.83;;;10.40;99.90;;;;;;5032586;28;20397;-85
2022/01/03 12:32:34;;;;;;;22.25;4.07;;;10.30;99.90;;;;;;5027075;28;20054;-83
2022/01/03 12:35:06;;;;;;;25.48;4.32;;;10.30;99.90;;;;;;5032611;28;20072;-83
2022/01/03 12:37:37;;;;;;;37.22;4.85;;;10.50;99.90;;;;;;5032739;28;20053;-84
2022/01/03 12:40:05;;;;;;;30.30;3.95;;;10.30;99.90;;;;;;5032676;28;20085;-83
2022/01/03 12:42:50;;;;;;;32.90;3.78;;;10.40;99.90;;;;;;5032188;28;20137;-79
2022/01/03 12:45:39;;;;;;;33.90;5.07;;;10.30;99.90;;;;;;5032275;28;20096;-79
2022/01/03 12:48:18;;;;;;;27.88;4.47;;;10.60;99.90;;;;;;5032404;28;20080;-81
2022/01/03 12:50:53;;;;;;;25.92;3.22;;;10.30;99.90;;;;;;5032358;28;20087;-78
2022/01/03 12:53:28;;;;;;;;;;;10.40;99.90;;;;;;5032466;28;20049;-80
2022/01/03 12:56:00;;;;;;;31.20;3.50;;;10.30;99.90;;;;;;5032273;28;19931;-79
2022/01/03 12:58:26;;;;;;;19.92;2.83;;;10.30;99.90;;;;;;5010725;28;20116;-79
2022/01/03 13:00:51;;;;;;;26.88;3.08;;;10.70;99.90;;;;;;5012458;28;20552;-80
2022/01/03 13:03:39;;;;;;;29.42;3.80;;;10.30;99.90;;;;;;5012343;28;20034;-83
2022/01/03 13:06:15;;;;;;;30.73;3.95;;;10.30;99.90;;;;;;5012076;28;20136;-80
2022/01/03 13:08:52;;;;;;;25.48;3.33;;;10.30;99.90;;;;;;5012459;28;20037;-82
2022/01/03 13:11:20;;;;;;;29.95;4.50;;;10.30;99.90;;;;;;5011775;28;20508;-80